sensor_id;sensor_type;location;lat;lon;timestamp;pressure;altitude;pressure_sealevel;temperature;humidity
9889;BME280;4983;42.112;24.738;2022-07-11T00:01:46;99449.28;;;20.94;74.43
9889;BME280;4983;42.112;24.738;2022-07-11T00:04:14;99442.09;;;20.87;75.79
9889;BME280;4983;42.112;24.738;2022-07-11T00:06:41;99438.72;;;20.91;74.81
9889;BME280;4983;42.112;24.738;2022-07-11T00:09:08;99441.03;;;20.94;74.62
9889;BME280;4983;42.112;24.738;2022-07-11T00:11:34;99433.63;;;20.82;75.83
9889;BME280;4983;42.112;24.738;2022-07-11T00:14:03;99443.56;;;20.76;76.94
9889;BME280;4983;42.112;24.738;2022-07-11T00:16:30;99434.03;;;20.78;76.79
9889;BME280;4983;42.112;24.738;2022-07-11T00:18:57;99439.75;;;20.83;76.86
9889;BME280;4983;42.112;24.738;2022-07-11T00:21:24;99441.50;;;20.65;77.66
9889;BME280;4983;42.112;24.738;2022-07-11T00:23:51;99445.09;;;20.46;78.13
9889;BME280;4983;42.112;24.738;2022-07-11T00:26:18;99441.91;;;20.43;78.78
9889;BME280;4983;42.112;24.738;2022-07-11T00:28:45;99443.44;;;20.39;78.36
9889;BME280;4983;42.112;24.738;2022-07-11T00:31:13;99449.97;;;20.25;79.31
9889;BME280;4983;42.112;24.738;2022-07-11T00:33:40;99448.47;;;20.42;78.21
9889;BME280;4983;42.112;24.738;2022-07-11T00:36:07;99446.38;;;20.31;78.64
9889;BME280;4983;42.112;24.738;2022-07-11T00:38:35;99450.63;;;20.27;79.39
9889;BME280;4983;42.112;24.738;2022-07-11T00:41:02;99448.91;;;20.26;78.98
9889;BME280;4983;42.112;24.738;2022-07-11T00:43:29;99445.13;;;20.27;79.03
9889;BME280;4983;42.112;24.738;2022-07-11T00:45:57;99450.38;;;20.35;79.66
9889;BME280;4983;42.112;24.738;2022-07-11T00:48:25;99453.13;;;20.35;77.96
9889;BME280;4983;42.112;24.738;2022-07-11T00:50:52;99451.88;;;20.37;77.59
9889;BME280;4983;42.112;24.738;2022-07-11T00:53:20;99452.72;;;20.44;78.03
9889;BME280;4983;42.112;24.738;2022-07-11T00:55:47;99452.91;;;20.43;77.10
9889;BME280;4983;42.112;24.738;2022-07-11T00:58:14;99446.81;;;20.47;77.30
9889;BME280;4983;42.112;24.738;2022-07-11T01:00:42;99445.53;;;20.43;76.95
9889;BME280;4983;42.112;24.738;2022-07-11T01:03:10;99445.50;;;20.50;76.70
9889;BME280;4983;42.112;24.738;2022-07-11T01:05:38;99459.91;;;20.52;77.08
9889;BME280;4983;42.112;24.738;2022-07-11T01:08:05;99451.44;;;20.47;77.23
9889;BME280;4983;42.112;24.738;2022-07-11T01:10:32;99457.16;;;20.39;78.20
9889;BME280;4983;42.112;24.738;2022-07-11T01:13:00;99456.94;;;20.40;76.99
9889;BME280;4983;42.112;24.738;2022-07-11T01:15:27;99459.47;;;20.35;77.75
9889;BME280;4983;42.112;24.738;2022-07-11T01:17:54;99460.09;;;20.31;77.28
9889;BME280;4983;42.112;24.738;2022-07-11T01:20:21;99471.53;;;20.34;78.05
9889;BME280;4983;42.112;24.738;2022-07-11T01:22:54;99462.84;;;20.31;78.25
9889;BME280;4983;42.112;24.738;2022-07-11T01:25:23;99463.94;;;20.36;77.93
9889;BME280;4983;42.112;24.738;2022-07-11T01:28:01;99468.13;;;20.26;78.60
9889;BME280;4983;42.112;24.738;2022-07-11T01:30:30;99468.38;;;20.24;79.09
9889;BME280;4983;42.112;24.738;2022-07-11T01:32:59;99477.25;;;20.13;79.41
9889;BME280;4983;42.112;24.738;2022-07-11T01:35:27;99468.97;;;20.07;79.12
9889;BME280;4983;42.112;24.738;2022-07-11T01:37:54;99468.97;;;20.07;79.73
9889;BME280;4983;42.112;24.738;2022-07-11T01:40:23;99459.84;;;20.00;80.04
9889;BME280;4983;42.112;24.738;2022-07-11T01:42:49;99463.63;;;19.92;80.00
9889;BME280;4983;42.112;24.738;2022-07-11T01:45:16;99464.47;;;19.86;81.03
9889;BME280;4983;42.112;24.738;2022-07-11T01:47:43;99464.47;;;19.86;81.18
9889;BME280;4983;42.112;24.738;2022-07-11T01:50:10;99465.31;;;19.87;81.26
9889;BME280;4983;42.112;24.738;2022-07-11T01:52:37;99467.66;;;19.83;81.45
9889;BME280;4983;42.112;24.738;2022-07-11T01:55:04;99466.75;;;19.76;81.92
9889;BME280;4983;42.112;24.738;2022-07-11T01:57:33;99463.19;;;19.76;81.40
9889;BME280;4983;42.112;24.738;2022-07-11T02:00:00;99462.31;;;19.75;81.30
9889;BME280;4983;42.112;24.738;2022-07-11T02:02:28;99465.06;;;19.75;81.11
9889;BME280;4983;42.112;24.738;2022-07-11T02:04:55;99472.91;;;19.78;81.36
9889;BME280;4983;42.112;24.738;2022-07-11T02:07:22;99472.03;;;19.78;81.58
9889;BME280;4983;42.112;24.738;2022-07-11T02:10:03;99475.44;;;19.80;81.21
9889;BME280;4983;42.112;24.738;2022-07-11T02:12:30;99474.16;;;19.76;81.58
9889;BME280;4983;42.112;24.738;2022-07-11T02:14:58;99481.38;;;19.83;80.82
9889;BME280;4983;42.112;24.738;2022-07-11T02:17:25;99481.41;;;19.96;80.54
9889;BME280;4983;42.112;24.738;2022-07-11T02:19:52;99482.25;;;20.03;81.10
9889;BME280;4983;42.112;24.738;2022-07-11T02:22:19;99497.69;;;20.04;80.38
9889;BME280;4983;42.112;24.738;2022-07-11T02:24:46;99487.94;;;20.02;80.07
9889;BME280;4983;42.112;24.738;2022-07-11T02:27:13;99493.06;;;20.11;79.69
9889;BME280;4983;42.112;24.738;2022-07-11T02:29:40;99495.38;;;20.08;80.14
9889;BME280;4983;42.112;24.738;2022-07-11T02:32:08;99498.75;;;20.03;79.90
9889;BME280;4983;42.112;24.738;2022-07-11T02:34:35;99493.88;;;19.99;80.29
9889;BME280;4983;42.112;24.738;2022-07-11T02:37:02;99500.84;;;20.01;80.32
9889;BME280;4983;42.112;24.738;2022-07-11T02:39:29;99500.84;;;19.95;79.90
9889;BME280;4983;42.112;24.738;2022-07-11T02:41:56;99506.94;;;19.97;80.13
9889;BME280;4983;42.112;24.738;2022-07-11T02:44:23;99511.81;;;19.95;79.92
9889;BME280;4983;42.112;24.738;2022-07-11T02:46:50;99513.94;;;19.93;80.76
9889;BME280;4983;42.112;24.738;2022-07-11T02:49:18;99521.94;;;19.94;80.29
9889;BME280;4983;42.112;24.738;2022-07-11T02:51:45;99519.59;;;19.78;81.59
9889;BME280;4983;42.112;24.738;2022-07-11T02:54:12;99524.19;;;19.65;82.41
9889;BME280;4983;42.112;24.738;2022-07-11T02:56:39;99527.78;;;19.65;83.16
9889;BME280;4983;42.112;24.738;2022-07-11T02:59:05;99529.63;;;19.52;82.47
9889;BME280;4983;42.112;24.738;2022-07-11T03:01:32;99529.00;;;19.56;83.41
9889;BME280;4983;42.112;24.738;2022-07-11T03:04:00;99535.88;;;19.39;83.58
9889;BME280;4983;42.112;24.738;2022-07-11T03:06:28;99537.00;;;19.45;82.67
9889;BME280;4983;42.112;24.738;2022-07-11T03:08:55;99540.63;;;19.52;82.14
9889;BME280;4983;42.112;24.738;2022-07-11T03:11:22;99540.81;;;19.50;82.00
9889;BME280;4983;42.112;24.738;2022-07-11T03:13:48;99537.06;;;19.58;80.86
9889;BME280;4983;42.112;24.738;2022-07-11T03:16:15;99541.91;;;19.62;80.67
9889;BME280;4983;42.112;24.738;2022-07-11T03:18:42;99530.75;;;19.64;80.73
9889;BME280;4983;42.112;24.738;2022-07-11T03:21:09;99536.22;;;19.64;80.24
9889;BME280;4983;42.112;24.738;2022-07-11T03:23:37;99536.63;;;19.61;82.13
9889;BME280;4983;42.112;24.738;2022-07-11T03:26:04;99535.59;;;19.68;80.36
9889;BME280;4983;42.112;24.738;2022-07-11T03:28:31;99534.31;;;19.64;80.56
9889;BME280;4983;42.112;24.738;2022-07-11T03:30:58;99531.16;;;19.67;80.39
9889;BME280;4983;42.112;24.738;2022-07-11T03:33:25;99535.41;;;19.70;80.18
9889;BME280;4983;42.112;24.738;2022-07-11T03:35:53;99531.22;;;19.74;80.16
9889;BME280;4983;42.112;24.738;2022-07-11T03:38:20;99545.56;;;19.82;79.91
9889;BME280;4983;42.112;24.738;2022-07-11T03:40:49;99538.41;;;19.81;79.27
9889;BME280;4983;42.112;24.738;2022-07-11T03:43:16;99545.38;;;19.84;79.12
9889;BME280;4983;42.112;24.738;2022-07-11T03:45:43;99541.94;;;20.16;77.89
9889;BME280;4983;42.112;24.738;2022-07-11T03:48:10;99547.25;;;20.37;77.26
9889;BME280;4983;42.112;24.738;2022-07-11T03:50:37;99544.72;;;20.42;76.67
9889;BME280;4983;42.112;24.738;2022-07-11T03:53:05;99548.53;;;20.41;76.82
9889;BME280;4983;42.112;24.738;2022-07-11T03:55:32;99557.84;;;20.40;76.65
9889;BME280;4983;42.112;24.738;2022-07-11T03:58:00;99556.56;;;20.55;76.10
9889;BME280;4983;42.112;24.738;2022-07-11T04:00:28;99557.19;;;20.57;75.89
9889;BME280;4983;42.112;24.738;2022-07-11T04:02:54;99560.38;;;20.67;75.81
9889;BME280;4983;42.112;24.738;2022-07-11T04:05:22;99561.00;;;20.69;73.71
9889;BME280;4983;42.112;24.738;2022-07-11T04:07:49;99552.56;;;20.71;74.04
9889;BME280;4983;42.112;24.738;2022-07-11T04:10:16;99546.66;;;20.74;73.04
9889;BME280;4983;42.112;24.738;2022-07-11T04:12:43;99556.34;;;20.76;74.20
9889;BME280;4983;42.112;24.738;2022-07-11T04:15:11;99555.31;;;20.71;74.48
9889;BME280;4983;42.112;24.738;2022-07-11T04:17:38;99562.94;;;20.69;74.37
9889;BME280;4983;42.112;24.738;2022-07-11T04:20:06;99571.16;;;20.62;74.81
9889;BME280;4983;42.112;24.738;2022-07-11T04:22:33;99565.88;;;20.54;75.01
9889;BME280;4983;42.112;24.738;2022-07-11T04:25:00;99569.47;;;20.61;76.10
9889;BME280;4983;42.112;24.738;2022-07-11T04:27:26;99570.31;;;20.62;74.08
9889;BME280;4983;42.112;24.738;2022-07-11T04:29:54;99575.38;;;20.58;74.77
9889;BME280;4983;42.112;24.738;2022-07-11T04:32:23;99570.78;;;20.65;76.26
9889;BME280;4983;42.112;24.738;2022-07-11T04:34:50;99566.72;;;20.67;76.96
9889;BME280;4983;42.112;24.738;2022-07-11T04:37:17;99577.97;;;20.66;76.19
9889;BME280;4983;42.112;24.738;2022-07-11T04:39:44;99587.47;;;20.64;75.34
9889;BME280;4983;42.112;24.738;2022-07-11T04:42:13;99588.09;;;20.66;76.97
9889;BME280;4983;42.112;24.738;2022-07-11T04:44:40;99592.75;;;20.72;75.94
9889;BME280;4983;42.112;24.738;2022-07-11T04:47:08;99588.94;;;20.73;75.40
9889;BME280;4983;42.112;24.738;2022-07-11T04:49:36;99594.03;;;20.82;75.48
9889;BME280;4983;42.112;24.738;2022-07-11T04:52:03;99592.78;;;20.78;74.86
9889;BME280;4983;42.112;24.738;2022-07-11T04:54:30;99597.22;;;20.86;74.66
9889;BME280;4983;42.112;24.738;2022-07-11T04:56:57;99601.66;;;20.87;72.91
9889;BME280;4983;42.112;24.738;2022-07-11T04:59:24;99605.50;;;20.92;74.16
9889;BME280;4983;42.112;24.738;2022-07-11T05:01:52;99599.59;;;20.95;74.07
9889;BME280;4983;42.112;24.738;2022-07-11T05:04:19;99608.06;;;21.00;74.23
9889;BME280;4983;42.112;24.738;2022-07-11T05:06:47;99598.09;;;21.06;74.93
9889;BME280;4983;42.112;24.738;2022-07-11T05:09:14;99603.59;;;20.99;74.53
9889;BME280;4983;42.112;24.738;2022-07-11T05:11:41;99597.88;;;21.13;75.57
9889;BME280;4983;42.112;24.738;2022-07-11T05:14:08;99612.25;;;21.28;75.44
9889;BME280;4983;42.112;24.738;2022-07-11T05:16:36;99613.31;;;21.27;74.58
9889;BME280;4983;42.112;24.738;2022-07-11T05:19:03;99615.19;;;21.40;73.50
9889;BME280;4983;42.112;24.738;2022-07-11T05:21:30;99612.84;;;21.56;73.00
9889;BME280;4983;42.112;24.738;2022-07-11T05:23:58;99615.00;;;21.41;71.85
9889;BME280;4983;42.112;24.738;2022-07-11T05:26:25;99621.94;;;21.57;72.30
9889;BME280;4983;42.112;24.738;2022-07-11T05:28:51;99617.75;;;21.48;72.80
9889;BME280;4983;42.112;24.738;2022-07-11T05:31:18;99620.69;;;21.53;72.75
9889;BME280;4983;42.112;24.738;2022-07-11T05:33:45;99616.84;;;21.60;72.51
9889;BME280;4983;42.112;24.738;2022-07-11T05:36:12;99617.25;;;21.64;71.61
9889;BME280;4983;42.112;24.738;2022-07-11T05:38:39;99617.50;;;21.69;71.88
9889;BME280;4983;42.112;24.738;2022-07-11T05:41:08;99605.81;;;21.80;71.71
9889;BME280;4983;42.112;24.738;2022-07-11T05:43:35;99619.97;;;21.90;71.03
9889;BME280;4983;42.112;24.738;2022-07-11T05:46:04;99617.59;;;22.00;71.37
9889;BME280;4983;42.112;24.738;2022-07-11T05:48:31;99620.13;;;22.08;73.06
9889;BME280;4983;42.112;24.738;2022-07-11T05:50:58;99633.91;;;22.08;70.31
9889;BME280;4983;42.112;24.738;2022-07-11T05:53:25;99627.31;;;22.15;70.22
9889;BME280;4983;42.112;24.738;2022-07-11T05:55:52;99630.94;;;22.09;69.73
9889;BME280;4983;42.112;24.738;2022-07-11T05:58:20;99626.84;;;22.25;72.39
9889;BME280;4983;42.112;24.738;2022-07-11T06:00:47;99629.41;;;22.20;69.70
9889;BME280;4983;42.112;24.738;2022-07-11T06:03:14;99638.28;;;22.22;67.59
9889;BME280;4983;42.112;24.738;2022-07-11T06:05:41;99641.03;;;22.28;68.47
9889;BME280;4983;42.112;24.738;2022-07-11T06:08:08;99643.72;;;22.35;69.90
9889;BME280;4983;42.112;24.738;2022-07-11T06:10:52;99644.13;;;22.51;68.35
9889;BME280;4983;42.112;24.738;2022-07-11T06:13:21;99648.16;;;22.49;67.56
9889;BME280;4983;42.112;24.738;2022-07-11T06:15:48;99656.25;;;22.81;69.05
9889;BME280;4983;42.112;24.738;2022-07-11T06:18:15;99648.63;;;22.77;66.39
9889;BME280;4983;42.112;24.738;2022-07-11T06:20:42;99658.44;;;22.66;64.74
9889;BME280;4983;42.112;24.738;2022-07-11T06:23:09;99651.97;;;22.85;63.96
9889;BME280;4983;42.112;24.738;2022-07-11T06:25:36;99654.56;;;22.80;63.90
9889;BME280;4983;42.112;24.738;2022-07-11T06:28:03;99651.28;;;22.90;65.49
9889;BME280;4983;42.112;24.738;2022-07-11T06:30:32;99645.38;;;23.17;64.64
9889;BME280;4983;42.112;24.738;2022-07-11T06:32:59;99645.38;;;23.17;63.02
9889;BME280;4983;42.112;24.738;2022-07-11T06:35:26;99649.22;;;23.16;62.73
9889;BME280;4983;42.112;24.738;2022-07-11T06:37:53;99650.94;;;23.35;63.29
9889;BME280;4983;42.112;24.738;2022-07-11T06:40:21;99648.56;;;23.39;62.85
9889;BME280;4983;42.112;24.738;2022-07-11T06:42:49;99646.41;;;23.41;63.45
9889;BME280;4983;42.112;24.738;2022-07-11T06:45:16;99645.47;;;23.53;63.59
9889;BME280;4983;42.112;24.738;2022-07-11T06:47:45;99639.06;;;23.53;61.36
9889;BME280;4983;42.112;24.738;2022-07-11T06:50:11;99645.31;;;23.66;62.34
9889;BME280;4983;42.112;24.738;2022-07-11T06:52:38;99649.09;;;23.72;64.79
9889;BME280;4983;42.112;24.738;2022-07-11T06:55:06;99642.34;;;23.86;59.12
9889;BME280;4983;42.112;24.738;2022-07-11T06:57:33;99630.56;;;23.97;61.18
9889;BME280;4983;42.112;24.738;2022-07-11T07:00:00;99632.06;;;24.11;56.59
9889;BME280;4983;42.112;24.738;2022-07-11T07:02:27;99634.94;;;24.04;55.70
9889;BME280;4983;42.112;24.738;2022-07-11T07:04:57;99630.56;;;24.15;53.46
9889;BME280;4983;42.112;24.738;2022-07-11T07:07:24;99636.25;;;24.02;54.82
9889;BME280;4983;42.112;24.738;2022-07-11T07:09:51;99631.31;;;24.04;56.20
9889;BME280;4983;42.112;24.738;2022-07-11T07:12:19;99631.84;;;24.12;55.04
9889;BME280;4983;42.112;24.738;2022-07-11T07:14:47;99627.72;;;24.03;54.87
9889;BME280;4983;42.112;24.738;2022-07-11T07:17:14;99634.44;;;24.25;56.45
9889;BME280;4983;42.112;24.738;2022-07-11T07:19:40;99632.97;;;24.41;57.29
9889;BME280;4983;42.112;24.738;2022-07-11T07:22:09;99627.41;;;24.41;54.31
9889;BME280;4983;42.112;24.738;2022-07-11T07:24:41;99640.81;;;24.44;55.57
9889;BME280;4983;42.112;24.738;2022-07-11T07:27:09;99637.69;;;24.52;55.47
9889;BME280;4983;42.112;24.738;2022-07-11T07:29:36;99650.00;;;24.56;55.91
9889;BME280;4983;42.112;24.738;2022-07-11T07:32:04;99641.09;;;24.54;53.99
9889;BME280;4983;42.112;24.738;2022-07-11T07:34:31;99641.88;;;24.61;56.01
9889;BME280;4983;42.112;24.738;2022-07-11T07:36:58;99647.69;;;24.53;55.44
9889;BME280;4983;42.112;24.738;2022-07-11T07:39:26;99647.41;;;24.61;53.60
9889;BME280;4983;42.112;24.738;2022-07-11T07:41:54;99655.59;;;24.67;54.54
9889;BME280;4983;42.112;24.738;2022-07-11T07:44:21;99652.63;;;24.51;53.38
9889;BME280;4983;42.112;24.738;2022-07-11T07:46:47;99650.00;;;24.74;51.55
9889;BME280;4983;42.112;24.738;2022-07-11T07:49:14;99649.31;;;24.60;52.89
9889;BME280;4983;42.112;24.738;2022-07-11T07:51:41;99633.53;;;24.79;53.69
9889;BME280;4983;42.112;24.738;2022-07-11T07:54:08;99642.09;;;24.89;50.64
9889;BME280;4983;42.112;24.738;2022-07-11T07:56:37;99645.94;;;24.88;49.94
9889;BME280;4983;42.112;24.738;2022-07-11T07:59:03;99639.72;;;25.04;50.92
9889;BME280;4983;42.112;24.738;2022-07-11T08:01:30;99640.72;;;25.21;50.90
9889;BME280;4983;42.112;24.738;2022-07-11T08:04:03;99645.34;;;25.27;52.59
9889;BME280;4983;42.112;24.738;2022-07-11T08:06:30;99645.56;;;25.25;49.95
9889;BME280;4983;42.112;24.738;2022-07-11T08:08:57;99638.09;;;25.37;50.40
9889;BME280;4983;42.112;24.738;2022-07-11T08:11:24;99632.47;;;25.44;52.50
9889;BME280;4983;42.112;24.738;2022-07-11T08:13:53;99639.22;;;25.71;52.44
9889;BME280;4983;42.112;24.738;2022-07-11T08:16:20;99633.53;;;25.89;49.52
9889;BME280;4983;42.112;24.738;2022-07-11T08:18:47;99638.03;;;25.90;48.66
9889;BME280;4983;42.112;24.738;2022-07-11T08:21:14;99635.47;;;25.65;48.82
9889;BME280;4983;42.112;24.738;2022-07-11T08:23:41;99619.09;;;25.52;49.76
9889;BME280;4983;42.112;24.738;2022-07-11T08:26:08;99637.03;;;25.61;51.53
9889;BME280;4983;42.112;24.738;2022-07-11T08:28:35;99628.97;;;25.71;46.38
9889;BME280;4983;42.112;24.738;2022-07-11T08:31:03;99638.97;;;25.95;48.61
9889;BME280;4983;42.112;24.738;2022-07-11T08:33:30;99631.63;;;25.78;47.68
9889;BME280;4983;42.112;24.738;2022-07-11T08:35:57;99633.97;;;26.20;49.41
9889;BME280;4983;42.112;24.738;2022-07-11T08:38:23;99625.72;;;26.76;54.56
9889;BME280;4983;42.112;24.738;2022-07-11T08:40:50;99632.16;;;26.26;48.50
9889;BME280;4983;42.112;24.738;2022-07-11T08:43:20;99627.69;;;26.25;46.47
9889;BME280;4983;42.112;24.738;2022-07-11T08:45:48;99629.56;;;25.85;47.20
9889;BME280;4983;42.112;24.738;2022-07-11T08:48:19;99628.59;;;26.02;46.73
9889;BME280;4983;42.112;24.738;2022-07-11T08:50:46;99618.69;;;26.06;51.21
9889;BME280;4983;42.112;24.738;2022-07-11T08:53:14;99615.63;;;26.31;48.52
9889;BME280;4983;42.112;24.738;2022-07-11T08:55:41;99612.13;;;26.52;48.63
9889;BME280;4983;42.112;24.738;2022-07-11T08:58:08;99612.47;;;26.67;46.62
9889;BME280;4983;42.112;24.738;2022-07-11T09:00:36;99617.25;;;26.55;47.83
9889;BME280;4983;42.112;24.738;2022-07-11T09:03:03;99618.00;;;26.39;44.01
9889;BME280;4983;42.112;24.738;2022-07-11T09:05:32;99614.34;;;26.50;43.69
9889;BME280;4983;42.112;24.738;2022-07-11T09:07:59;99613.47;;;26.49;46.42
9889;BME280;4983;42.112;24.738;2022-07-11T09:10:26;99614.09;;;26.79;44.31
9889;BME280;4983;42.112;24.738;2022-07-11T09:13:00;99611.75;;;26.88;46.17
9889;BME280;4983;42.112;24.738;2022-07-11T09:15:32;99610.09;;;27.03;42.41
9889;BME280;4983;42.112;24.738;2022-07-11T09:18:00;99604.88;;;27.07;43.26
9889;BME280;4983;42.112;24.738;2022-07-11T09:20:27;99597.97;;;27.09;40.58
9889;BME280;4983;42.112;24.738;2022-07-11T09:23:21;99609.13;;;27.26;40.44
9889;BME280;4983;42.112;24.738;2022-07-11T09:26:05;99608.50;;;27.07;37.24
9889;BME280;4983;42.112;24.738;2022-07-11T09:28:33;99601.63;;;27.26;37.35
9889;BME280;4983;42.112;24.738;2022-07-11T09:31:14;99608.25;;;27.09;37.34
9889;BME280;4983;42.112;24.738;2022-07-11T09:33:57;99610.78;;;27.43;39.95
9889;BME280;4983;42.112;24.738;2022-07-11T09:36:33;99594.28;;;27.53;37.05
9889;BME280;4983;42.112;24.738;2022-07-11T09:39:03;99611.84;;;27.75;34.27
9889;BME280;4983;42.112;24.738;2022-07-11T09:41:31;99614.50;;;27.32;33.04
9889;BME280;4983;42.112;24.738;2022-07-11T09:44:06;99606.16;;;27.32;32.94
9889;BME280;4983;42.112;24.738;2022-07-11T09:46:33;99614.19;;;27.45;32.79
9889;BME280;4983;42.112;24.738;2022-07-11T09:49:02;99615.75;;;27.74;33.58
9889;BME280;4983;42.112;24.738;2022-07-11T09:51:30;99607.22;;;27.81;31.17
9889;BME280;4983;42.112;24.738;2022-07-11T09:53:58;99613.81;;;27.58;30.22
9889;BME280;4983;42.112;24.738;2022-07-11T09:56:32;99618.13;;;27.49;31.58
9889;BME280;4983;42.112;24.738;2022-07-11T09:59:00;99606.38;;;27.64;30.90
9889;BME280;4983;42.112;24.738;2022-07-11T10:01:27;99616.69;;;27.63;29.64
9889;BME280;4983;42.112;24.738;2022-07-11T10:03:55;99618.00;;;27.11;28.67
9889;BME280;4983;42.112;24.738;2022-07-11T10:06:22;99618.00;;;27.11;29.47
9889;BME280;4983;42.112;24.738;2022-07-11T10:08:50;99624.22;;;27.30;28.83
9889;BME280;4983;42.112;24.738;2022-07-11T10:11:17;99608.88;;;27.44;28.86
9889;BME280;4983;42.112;24.738;2022-07-11T10:13:45;99609.44;;;27.62;28.44
9889;BME280;4983;42.112;24.738;2022-07-11T10:16:20;99614.25;;;28.26;31.29
9889;BME280;4983;42.112;24.738;2022-07-11T10:18:56;99605.94;;;28.31;29.68
9889;BME280;4983;42.112;24.738;2022-07-11T10:21:34;99611.91;;;27.97;25.80
9889;BME280;4983;42.112;24.738;2022-07-11T10:24:17;99602.91;;;27.73;27.63
9889;BME280;4983;42.112;24.738;2022-07-11T10:26:56;99605.97;;;28.10;28.15
9889;BME280;4983;42.112;24.738;2022-07-11T10:29:30;99604.53;;;28.29;27.72
9889;BME280;4983;42.112;24.738;2022-07-11T10:32:06;99601.91;;;28.39;28.68
9889;BME280;4983;42.112;24.738;2022-07-11T10:34:34;99590.91;;;28.27;26.94
9889;BME280;4983;42.112;24.738;2022-07-11T10:37:02;99595.78;;;28.63;28.30
9889;BME280;4983;42.112;24.738;2022-07-11T10:39:30;99597.53;;;28.26;27.32
9889;BME280;4983;42.112;24.738;2022-07-11T10:41:59;99597.09;;;28.34;29.02
9889;BME280;4983;42.112;24.738;2022-07-11T10:44:46;99591.88;;;28.38;29.81
9889;BME280;4983;42.112;24.738;2022-07-11T10:47:31;99598.34;;;28.70;28.92
9889;BME280;4983;42.112;24.738;2022-07-11T10:50:00;99586.47;;;28.31;29.77
9889;BME280;4983;42.112;24.738;2022-07-11T10:52:30;99580.41;;;28.13;29.65
9889;BME280;4983;42.112;24.738;2022-07-11T10:55:12;99592.69;;;28.17;30.11
9889;BME280;4983;42.112;24.738;2022-07-11T10:57:50;99590.25;;;28.42;32.36
9889;BME280;4983;42.112;24.738;2022-07-11T11:00:20;99598.16;;;28.50;30.65
9889;BME280;4983;42.112;24.738;2022-07-11T11:03:04;99595.28;;;28.23;30.83
9889;BME280;4983;42.112;24.738;2022-07-11T11:05:47;99593.47;;;28.12;31.78
9889;BME280;4983;42.112;24.738;2022-07-11T11:08:40;99583.09;;;28.29;30.75
9889;BME280;4983;42.112;24.738;2022-07-11T11:11:38;99575.97;;;28.60;30.88
9889;BME280;4983;42.112;24.738;2022-07-11T11:14:24;99590.16;;;28.58;30.73
9889;BME280;4983;42.112;24.738;2022-07-11T11:17:35;99587.63;;;28.35;31.42
9889;BME280;4983;42.112;24.738;2022-07-11T11:20:03;99584.69;;;28.42;30.14
9889;BME280;4983;42.112;24.738;2022-07-11T11:22:30;99587.19;;;28.00;31.36
9889;BME280;4983;42.112;24.738;2022-07-11T11:24:58;99584.47;;;28.27;30.52
9889;BME280;4983;42.112;24.738;2022-07-11T11:27:26;99577.22;;;28.26;30.95
9889;BME280;4983;42.112;24.738;2022-07-11T11:29:54;99578.34;;;28.25;30.39
9889;BME280;4983;42.112;24.738;2022-07-11T11:32:28;99578.00;;;28.43;30.90
9889;BME280;4983;42.112;24.738;2022-07-11T11:34:58;99588.13;;;28.49;32.09
9889;BME280;4983;42.112;24.738;2022-07-11T11:37:25;99587.31;;;28.53;30.44
9889;BME280;4983;42.112;24.738;2022-07-11T11:39:57;99586.84;;;28.61;30.76
9889;BME280;4983;42.112;24.738;2022-07-11T11:42:25;99591.34;;;28.94;30.93
9889;BME280;4983;42.112;24.738;2022-07-11T11:44:58;99581.00;;;29.16;32.71
9889;BME280;4983;42.112;24.738;2022-07-11T11:47:28;99577.91;;;29.12;30.36
9889;BME280;4983;42.112;24.738;2022-07-11T11:49:56;99584.94;;;29.20;31.04
9889;BME280;4983;42.112;24.738;2022-07-11T11:52:27;99579.44;;;28.45;29.74
9889;BME280;4983;42.112;24.738;2022-07-11T11:54:55;99583.34;;;28.71;30.51
9889;BME280;4983;42.112;24.738;2022-07-11T11:57:24;99574.97;;;28.44;30.00
9889;BME280;4983;42.112;24.738;2022-07-11T11:59:51;99577.03;;;28.11;29.48
9889;BME280;4983;42.112;24.738;2022-07-11T12:02:23;99579.53;;;28.34;31.14
9889;BME280;4983;42.112;24.738;2022-07-11T12:04:51;99588.25;;;28.64;31.57
9889;BME280;4983;42.112;24.738;2022-07-11T12:07:26;99573.19;;;28.91;29.62
9889;BME280;4983;42.112;24.738;2022-07-11T12:09:55;99571.91;;;28.72;31.10
9889;BME280;4983;42.112;24.738;2022-07-11T12:12:25;99581.56;;;28.65;30.61
9889;BME280;4983;42.112;24.738;2022-07-11T12:15:31;99593.81;;;28.90;30.94
9889;BME280;4983;42.112;24.738;2022-07-11T12:18:01;99580.88;;;29.01;31.01
9889;BME280;4983;42.112;24.738;2022-07-11T12:20:38;99583.69;;;29.06;29.32
9889;BME280;4983;42.112;24.738;2022-07-11T12:23:08;99579.06;;;28.90;31.64
9889;BME280;4983;42.112;24.738;2022-07-11T12:25:35;99586.44;;;28.74;28.72
9889;BME280;4983;42.112;24.738;2022-07-11T12:28:03;99581.19;;;29.04;29.21
9889;BME280;4983;42.112;24.738;2022-07-11T12:30:30;99576.91;;;29.60;30.55
9889;BME280;4983;42.112;24.738;2022-07-11T12:33:04;99575.16;;;29.95;30.24
9889;BME280;4983;42.112;24.738;2022-07-11T12:35:32;99569.88;;;30.04;27.62
9889;BME280;4983;42.112;24.738;2022-07-11T12:37:59;99571.00;;;30.03;28.55
9889;BME280;4983;42.112;24.738;2022-07-11T12:40:27;99573.09;;;29.71;27.08
9889;BME280;4983;42.112;24.738;2022-07-11T12:42:54;99566.22;;;29.15;28.30
9889;BME280;4983;42.112;24.738;2022-07-11T12:45:21;99572.88;;;29.09;29.14
9889;BME280;4983;42.112;24.738;2022-07-11T12:47:48;99568.72;;;29.17;30.77
9889;BME280;4983;42.112;24.738;2022-07-11T12:50:18;99558.53;;;28.96;27.75
9889;BME280;4983;42.112;24.738;2022-07-11T12:52:46;99559.16;;;29.03;26.94
9889;BME280;4983;42.112;24.738;2022-07-11T12:55:20;99564.53;;;28.56;28.00
9889;BME280;4983;42.112;24.738;2022-07-11T12:58:03;99568.56;;;28.97;30.05
9889;BME280;4983;42.112;24.738;2022-07-11T13:00:32;99564.97;;;29.01;27.90
9889;BME280;4983;42.112;24.738;2022-07-11T13:03:00;99569.97;;;28.99;28.46
9889;BME280;4983;42.112;24.738;2022-07-11T13:05:27;99556.94;;;28.78;27.27
9889;BME280;4983;42.112;24.738;2022-07-11T13:07:54;99554.75;;;28.85;29.34
9889;BME280;4983;42.112;24.738;2022-07-11T13:10:38;99559.09;;;28.98;28.33
9889;BME280;4983;42.112;24.738;2022-07-11T13:13:19;99557.41;;;28.44;27.50
9889;BME280;4983;42.112;24.738;2022-07-11T13:15:47;99549.94;;;28.28;27.28
9889;BME280;4983;42.112;24.738;2022-07-11T13:18:16;99561.00;;;28.66;28.56
9889;BME280;4983;42.112;24.738;2022-07-11T13:20:43;99561.53;;;28.94;27.39